sensor_id;sensor_type;location;lat;lon;timestamp;pressure;altitude;pressure_sealevel;temperature;humidity
31717;BME280;18301;51.076;17.046;2023-08-12T00:02:23;100763.91;;;17.86;78.50
31717;BME280;18301;51.076;17.046;2023-08-12T00:07:24;100771.06;;;17.87;78.30
31717;BME280;18301;51.076;17.046;2023-08-12T00:12:26;100771.66;;;17.81;78.47
31717;BME280;18301;51.076;17.046;2023-08-12T00:17:27;100768.50;;;17.76;78.53
31717;BME280;18301;51.076;17.046;2023-08-12T00:22:29;100769.69;;;17.74;78.74
31717;BME280;18301;51.076;17.046;2023-08-12T00:27:31;100773.41;;;17.72;78.95
31717;BME280;18301;51.076;17.046;2023-08-12T00:32:32;100757.63;;;17.66;79.18
31717;BME280;18301;51.076;17.046;2023-08-12T00:37:34;100743.41;;;17.63;79.52
31717;BME280;18301;51.076;17.046;2023-08-12T00:42:35;100747.22;;;17.52;79.69
31717;BME280;18301;51.076;17.046;2023-08-12T00:47:37;100731.28;;;17.47;80.17
31717;BME280;18301;51.076;17.046;2023-08-12T00:52:39;100729.31;;;17.40;80.48
31717;BME280;18301;51.076;17.046;2023-08-12T00:57:41;100726.28;;;17.33;81.11
31717;BME280;18301;51.076;17.046;2023-08-12T01:02:44;100716.88;;;17.28;81.63
31717;BME280;18301;51.076;17.046;2023-08-12T01:07:49;100721.91;;;17.22;81.89
31717;BME280;18301;51.076;17.046;2023-08-12T01:13:01;100713.78;;;17.03;82.73
31717;BME280;18301;51.076;17.046;2023-08-12T01:18:08;100709.22;;;16.94;82.99
31717;BME280;18301;51.076;17.046;2023-08-12T01:23:14;100717.97;;;16.88;83.56
31717;BME280;18301;51.076;17.046;2023-08-12T01:28:16;100719.69;;;16.89;83.35
31717;BME280;18301;51.076;17.046;2023-08-12T01:33:39;100718.97;;;16.87;83.88
31717;BME280;18301;51.076;17.046;2023-08-12T01:38:44;100713.81;;;16.84;83.65
31717;BME280;18301;51.076;17.046;2023-08-12T01:43:48;100718.84;;;16.78;84.06
31717;BME280;18301;51.076;17.046;2023-08-12T01:48:49;100723.44;;;16.78;84.35
31717;BME280;18301;51.076;17.046;2023-08-12T01:53:51;100721.09;;;16.73;85.10
31717;BME280;18301;51.076;17.046;2023-08-12T01:58:52;100718.84;;;16.69;84.39
31717;BME280;18301;51.076;17.046;2023-08-12T02:03:54;100715.38;;;16.67;84.23
31717;BME280;18301;51.076;17.046;2023-08-12T02:08:56;100699.06;;;16.57;84.25
31717;BME280;18301;51.076;17.046;2023-08-12T02:13:57;100683.28;;;16.51;84.96
31717;BME280;18301;51.076;17.046;2023-08-12T02:18:59;100689.31;;;16.45;84.76
31717;BME280;18301;51.076;17.046;2023-08-12T02:24:00;100691.03;;;16.36;85.08
31717;BME280;18301;51.076;17.046;2023-08-12T02:29:02;100690.75;;;16.29;85.43
31717;BME280;18301;51.076;17.046;2023-08-12T02:34:03;100685.00;;;16.32;85.76
31717;BME280;18301;51.076;17.046;2023-08-12T02:39:05;100693.75;;;16.26;85.70
31717;BME280;18301;51.076;17.046;2023-08-12T02:44:06;100687.56;;;16.24;86.64
31717;BME280;18301;51.076;17.046;2023-08-12T02:49:08;100682.41;;;16.21;86.22
31717;BME280;18301;51.076;17.046;2023-08-12T02:54:09;100692.28;;;16.22;87.12
31717;BME280;18301;51.076;17.046;2023-08-12T02:59:11;100688.16;;;16.18;86.57
31717;BME280;18301;51.076;17.046;2023-08-12T03:04:12;100689.56;;;16.22;86.68
31717;BME280;18301;51.076;17.046;2023-08-12T03:09:14;100689.56;;;16.22;86.57
31717;BME280;18301;51.076;17.046;2023-08-12T03:14:18;100696.19;;;16.20;86.44
31717;BME280;18301;51.076;17.046;2023-08-12T03:19:19;100690.75;;;16.20;86.51
31717;BME280;18301;51.076;17.046;2023-08-12T03:24:20;100701.59;;;16.10;86.46
31717;BME280;18301;51.076;17.046;2023-08-12T03:29:22;100692.72;;;16.08;86.72
31717;BME280;18301;51.076;17.046;2023-08-12T03:34:24;100687.28;;;16.08;86.58
31717;BME280;18301;51.076;17.046;2023-08-12T03:39:25;100691.00;;;16.07;86.61
31717;BME280;18301;51.076;17.046;2023-08-12T03:44:27;100696.16;;;16.10;86.60
31717;BME280;18301;51.076;17.046;2023-08-12T03:49:28;100692.84;;;16.06;86.39
31717;BME280;18301;51.076;17.046;2023-08-12T03:54:30;100698.59;;;16.03;86.58
31717;BME280;18301;51.076;17.046;2023-08-12T03:59:31;100694.00;;;16.04;86.54
31717;BME280;18301;51.076;17.046;2023-08-12T04:04:33;100701.59;;;16.10;86.46
31717;BME280;18301;51.076;17.046;2023-08-12T04:09:34;100687.88;;;16.11;86.81
31717;BME280;18301;51.076;17.046;2023-08-12T04:14:36;100686.44;;;16.17;86.56
31717;BME280;18301;51.076;17.046;2023-08-12T04:19:37;100690.44;;;16.13;86.03
31717;BME280;18301;51.076;17.046;2023-08-12T04:24:40;100690.75;;;16.20;86.74
31717;BME280;18301;51.076;17.046;2023-08-12T04:29:42;100691.03;;;16.26;86.55
31717;BME280;18301;51.076;17.046;2023-08-12T04:34:45;100681.56;;;16.30;86.52
31717;BME280;18301;51.076;17.046;2023-08-12T04:39:47;100679.13;;;16.27;87.04
31717;BME280;18301;51.076;17.046;2023-08-12T04:44:48;100670.09;;;16.37;87.10
31717;BME280;18301;51.076;17.046;2023-08-12T04:49:50;100675.09;;;16.51;87.27
31717;BME280;18301;51.076;17.046;2023-08-12T04:54:55;100681.41;;;16.61;87.59
31717;BME280;18301;51.076;17.046;2023-08-12T04:59:56;100681.25;;;16.82;87.29
31717;BME280;18301;51.076;17.046;2023-08-12T05:04:58;100673.19;;;17.00;87.39
31717;BME280;18301;51.076;17.046;2023-08-12T05:09:59;100679.97;;;17.23;87.21
31717;BME280;18301;51.076;17.046;2023-08-12T05:15:01;100670.41;;;17.47;86.71
31717;BME280;18301;51.076;17.046;2023-08-12T05:20:03;100672.03;;;17.67;85.99
31717;BME280;18301;51.076;17.046;2023-08-12T05:25:05;100677.00;;;18.00;84.90
31717;BME280;18301;51.076;17.046;2023-08-12T05:30:07;100665.38;;;18.15;85.09
31717;BME280;18301;51.076;17.046;2023-08-12T05:35:08;100658.44;;;18.39;84.38
31717;BME280;18301;51.076;17.046;2023-08-12T05:40:10;100655.19;;;18.61;84.00
31717;BME280;18301;51.076;17.046;2023-08-12T05:45:12;100646.34;;;18.85;83.21
31717;BME280;18301;51.076;17.046;2023-08-12T05:50:14;100652.00;;;19.18;82.83
31717;BME280;18301;51.076;17.046;2023-08-12T05:55:16;100648.56;;;19.50;83.03
31717;BME280;18301;51.076;17.046;2023-08-12T06:00:17;100638.59;;;19.92;80.50
31717;BME280;18301;51.076;17.046;2023-08-12T06:05:19;100640.16;;;20.03;79.04
31717;BME280;18301;51.076;17.046;2023-08-12T06:10:20;100636.56;;;20.10;78.87
31717;BME280;18301;51.076;17.046;2023-08-12T06:15:22;100644.31;;;20.39;78.15
31717;BME280;18301;51.076;17.046;2023-08-12T06:20:24;100629.75;;;20.72;75.67
31717;BME280;18301;51.076;17.046;2023-08-12T06:25:25;100631.63;;;20.79;74.51
31717;BME280;18301;51.076;17.046;2023-08-12T06:30:27;100637.97;;;20.88;73.48
31717;BME280;18301;51.076;17.046;2023-08-12T06:35:29;100620.19;;;21.23;71.49
31717;BME280;18301;51.076;17.046;2023-08-12T06:40:31;100629.28;;;21.71;72.29
31717;BME280;18301;51.076;17.046;2023-08-12T06:45:33;100636.28;;;22.05;70.18
31717;BME280;18301;51.076;17.046;2023-08-12T06:50:34;100635.44;;;22.27;70.82
31717;BME280;18301;51.076;17.046;2023-08-12T06:55:36;100623.75;;;22.48;68.66
31717;BME280;18301;51.076;17.046;2023-08-12T07:00:37;100626.81;;;22.68;66.33
31717;BME280;18301;51.076;17.046;2023-08-12T07:05:39;100627.69;;;22.84;67.97
31717;BME280;18301;51.076;17.046;2023-08-12T07:10:41;100633.28;;;23.13;66.88
31717;BME280;18301;51.076;17.046;2023-08-12T07:15:43;100628.22;;;23.17;65.96
31717;BME280;18301;51.076;17.046;2023-08-12T07:20:45;100628.69;;;23.20;65.92
31717;BME280;18301;51.076;17.046;2023-08-12T07:25:46;100622.34;;;23.35;65.65
31717;BME280;18301;51.076;17.046;2023-08-12T07:30:48;100631.28;;;23.37;64.63
31717;BME280;18301;51.076;17.046;2023-08-12T07:35:50;100625.31;;;23.18;65.63
31717;BME280;18301;51.076;17.046;2023-08-12T07:40:53;100615.59;;;23.37;65.81
31717;BME280;18301;51.076;17.046;2023-08-12T07:45:55;100612.88;;;23.74;65.37
31717;BME280;18301;51.076;17.046;2023-08-12T07:51:10;100601.72;;;23.97;65.13
31717;BME280;18301;51.076;17.046;2023-08-12T07:56:11;100599.84;;;24.04;63.65
31717;BME280;18301;51.076;17.046;2023-08-12T08:01:13;100600.19;;;24.16;63.78
31717;BME280;18301;51.076;17.046;2023-08-12T08:06:15;100595.72;;;24.36;62.79
31717;BME280;18301;51.076;17.046;2023-08-12T08:11:16;100595.06;;;24.55;61.46
31717;BME280;18301;51.076;17.046;2023-08-12T08:16:18;100600.69;;;24.69;61.10
31717;BME280;18301;51.076;17.046;2023-08-12T08:21:19;100592.75;;;24.87;61.28
31717;BME280;18301;51.076;17.046;2023-08-12T08:26:21;100588.19;;;25.08;60.68
31717;BME280;18301;51.076;17.046;2023-08-12T08:31:22;100592.78;;;25.22;60.09
31717;BME280;18301;51.076;17.046;2023-08-12T08:36:24;100579.59;;;25.24;59.60
31717;BME280;18301;51.076;17.046;2023-08-12T08:41:27;100581.63;;;25.43;59.43
31717;BME280;18301;51.076;17.046;2023-08-12T08:46:31;100581.41;;;25.52;58.02
31717;BME280;18301;51.076;17.046;2023-08-12T08:51:33;100577.69;;;25.79;56.61
31717;BME280;18301;51.076;17.046;2023-08-12T08:56:34;100585.00;;;25.93;56.62
31717;BME280;18301;51.076;17.046;2023-08-12T09:01:51;100579.03;;;26.03;58.21
31717;BME280;18301;51.076;17.046;2023-08-12T09:06:53;100581.41;;;26.26;55.32
31717;BME280;18301;51.076;17.046;2023-08-12T09:11:55;100578.44;;;26.41;57.44
31717;BME280;18301;51.076;17.046;2023-08-12T09:16:58;100573.34;;;26.58;55.81
31717;BME280;18301;51.076;17.046;2023-08-12T09:22:03;100574.16;;;26.78;55.19
31717;BME280;18301;51.076;17.046;2023-08-12T09:27:04;100575.47;;;26.76;54.59
31717;BME280;18301;51.076;17.046;2023-08-12T09:32:13;100568.59;;;26.98;54.23
31717;BME280;18301;51.076;17.046;2023-08-12T09:37:19;100558.41;;;26.85;52.16
31717;BME280;18301;51.076;17.046;2023-08-12T09:42:21;100559.41;;;27.11;54.98
31717;BME280;18301;51.076;17.046;2023-08-12T09:47:25;100557.03;;;27.21;53.13
31717;BME280;18301;51.076;17.046;2023-08-12T09:52:27;100541.72;;;27.19;51.64
31717;BME280;18301;51.076;17.046;2023-08-12T09:57:30;100537.22;;;27.24;53.08
31717;BME280;18301;51.076;17.046;2023-08-12T10:02:34;100546.97;;;27.40;51.55
31717;BME280;18301;51.076;17.046;2023-08-12T10:07:36;100535.13;;;27.58;50.73
31717;BME280;18301;51.076;17.046;2023-08-12T10:12:37;100533.41;;;27.64;52.72
31717;BME280;18301;51.076;17.046;2023-08-12T10:17:40;100534.25;;;27.64;50.27
31717;BME280;18301;51.076;17.046;2023-08-12T10:22:44;100520.56;;;27.69;49.56
31717;BME280;18301;51.076;17.046;2023-08-12T10:27:46;100523.06;;;27.84;50.52
31717;BME280;18301;51.076;17.046;2023-08-12T10:32:48;100517.91;;;27.88;49.77
31717;BME280;18301;51.076;17.046;2023-08-12T10:37:50;100518.13;;;27.86;49.46
31717;BME280;18301;51.076;17.046;2023-08-12T10:42:52;100504.25;;;27.86;49.43
31717;BME280;18301;51.076;17.046;2023-08-12T10:48:15;100494.38;;;27.97;50.56
31717;BME280;18301;51.076;17.046;2023-08-12T10:53:28;100484.25;;;28.09;49.27
31717;BME280;18301;51.076;17.046;2023-08-12T10:58:46;100480.56;;;28.15;48.37
31717;BME280;18301;51.076;17.046;2023-08-12T11:03:48;100492.44;;;28.22;49.16
31717;BME280;18301;51.076;17.046;2023-08-12T11:08:52;100481.81;;;28.19;50.52
31717;BME280;18301;51.076;17.046;2023-08-12T11:13:56;100479.38;;;28.30;47.77
31717;BME280;18301;51.076;17.046;2023-08-12T11:18:58;100473.19;;;28.28;48.44
31717;BME280;18301;51.076;17.046;2023-08-12T11:24:00;100468.09;;;28.25;49.15
31717;BME280;18301;51.076;17.046;2023-08-12T11:29:08;100457.78;;;28.32;48.29
31717;BME280;18301;51.076;17.046;2023-08-12T11:34:10;100452.41;;;28.37;49.11
31717;BME280;18301;51.076;17.046;2023-08-12T11:39:11;100455.13;;;28.43;49.29
31717;BME280;18301;51.076;17.046;2023-08-12T11:44:15;100451.31;;;28.38;49.83
31717;BME280;18301;51.076;17.046;2023-08-12T11:49:17;100447.81;;;28.49;48.67
31717;BME280;18301;51.076;17.046;2023-08-12T11:54:19;100450.59;;;28.49;48.12
31717;BME280;18301;51.076;17.046;2023-08-12T11:59:21;100431.16;;;28.49;48.06
31717;BME280;18301;51.076;17.046;2023-08-12T12:04:24;100422.66;;;28.44;47.97
31717;BME280;18301;51.076;17.046;2023-08-12T12:09:25;100424.16;;;28.65;47.41
31717;BME280;18301;51.076;17.046;2023-08-12T12:14:28;100425.63;;;28.49;49.42
31717;BME280;18301;51.076;17.046;2023-08-12T12:19:29;100413.59;;;28.55;49.04
31717;BME280;18301;51.076;17.046;2023-08-12T12:24:44;100411.72;;;28.67;48.57
31717;BME280;18301;51.076;17.046;2023-08-12T12:29:47;100400.16;;;28.71;47.08
31717;BME280;18301;51.076;17.046;2023-08-12T12:34:49;100399.69;;;28.74;48.10
31717;BME280;18301;51.076;17.046;2023-08-12T12:39:50;100398.47;;;28.70;48.48
31717;BME280;18301;51.076;17.046;2023-08-12T12:44:52;100390.53;;;28.73;47.58
31717;BME280;18301;51.076;17.046;2023-08-12T12:49:53;100400.44;;;28.81;47.19
31717;BME280;18301;51.076;17.046;2023-08-12T12:54:55;100381.00;;;28.81;47.69
31717;BME280;18301;51.076;17.046;2023-08-12T12:59:58;100384.06;;;28.91;46.97
31717;BME280;18301;51.076;17.046;2023-08-12T13:05:00;100379.69;;;29.02;47.70
31717;BME280;18301;51.076;17.046;2023-08-12T13:10:02;100383.00;;;29.10;47.67
31717;BME280;18301;51.076;17.046;2023-08-12T13:15:04;100369.13;;;28.92;48.43
31717;BME280;18301;51.076;17.046;2023-08-12T13:20:06;100366.47;;;28.97;47.73
31717;BME280;18301;51.076;17.046;2023-08-12T13:25:08;100359.88;;;28.80;46.65
31717;BME280;18301;51.076;17.046;2023-08-12T13:30:10;100359.69;;;28.93;48.03
31717;BME280;18301;51.076;17.046;2023-08-12T13:35:15;100357.38;;;29.08;47.64
31717;BME280;18301;51.076;17.046;2023-08-12T13:40:17;100349.44;;;29.24;47.88
31717;BME280;18301;51.076;17.046;2023-08-12T13:45:18;100338.22;;;29.30;48.24
31717;BME280;18301;51.076;17.046;2023-08-12T13:50:20;100327.56;;;29.27;45.94
31717;BME280;18301;51.076;17.046;2023-08-12T13:55:22;100328.81;;;29.31;45.99
31717;BME280;18301;51.076;17.046;2023-08-12T14:00:23;100312.00;;;29.38;45.46
31717;BME280;18301;51.076;17.046;2023-08-12T14:05:26;100315.97;;;29.30;48.61
31717;BME280;18301;51.076;17.046;2023-08-12T14:10:27;100309.09;;;29.33;47.46
31717;BME280;18301;51.076;17.046;2023-08-12T14:15:29;100299.81;;;29.39;48.02
31717;BME280;18301;51.076;17.046;2023-08-12T14:20:30;100292.81;;;29.48;48.27
31717;BME280;18301;51.076;17.046;2023-08-12T14:25:32;100285.41;;;29.42;46.61
31717;BME280;18301;51.076;17.046;2023-08-12T14:30:33;100271.41;;;29.49;46.54
31717;BME280;18301;51.076;17.046;2023-08-12T14:35:35;100270.97;;;29.64;46.67
31717;BME280;18301;51.076;17.046;2023-08-12T14:40:37;100262.44;;;29.58;46.32
31717;BME280;18301;51.076;17.046;2023-08-12T14:45:38;100255.59;;;29.61;46.37
31717;BME280;18301;51.076;17.046;2023-08-12T14:50:40;100245.31;;;29.50;46.33
31717;BME280;18301;51.076;17.046;2023-08-12T14:55:41;100243.38;;;29.50;44.96
31717;BME280;18301;51.076;17.046;2023-08-12T15:00:43;100234.66;;;29.35;47.17
31717;BME280;18301;51.076;17.046;2023-08-12T15:05:45;100230.16;;;29.34;47.27
31717;BME280;18301;51.076;17.046;2023-08-12T15:10:47;100226.44;;;29.40;45.72
31717;BME280;18301;51.076;17.046;2023-08-12T15:15:49;100228.25;;;29.46;46.84
31717;BME280;18301;51.076;17.046;2023-08-12T15:20:51;100216.75;;;29.31;46.96
31717;BME280;18301;51.076;17.046;2023-08-12T15:25:53;100217.00;;;29.29;46.70
31717;BME280;18301;51.076;17.046;2023-08-12T15:30:54;100218.34;;;29.27;47.65
31717;BME280;18301;51.076;17.046;2023-08-12T15:35:56;100221.59;;;29.24;47.36
31717;BME280;18301;51.076;17.046;2023-08-12T15:40:58;100219.28;;;29.09;47.44
31717;BME280;18301;51.076;17.046;2023-08-12T15:45:59;100208.72;;;28.99;46.59
31717;BME280;18301;51.076;17.046;2023-08-12T15:51:01;100205.66;;;29.07;46.49
31717;BME280;18301;51.076;17.046;2023-08-12T15:56:03;100199.31;;;29.00;47.50
31717;BME280;18301;51.076;17.046;2023-08-12T16:01:05;100196.63;;;28.82;47.84
31717;BME280;18301;51.076;17.046;2023-08-12T16:06:07;100195.56;;;28.95;47.86
31717;BME280;18301;51.076;17.046;2023-08-12T16:11:09;100188.19;;;29.00;47.07
31717;BME280;18301;51.076;17.046;2023-08-12T16:16:10;100192.78;;;28.95;47.74
31717;BME280;18301;51.076;17.046;2023-08-12T16:21:12;100192.31;;;28.98;47.59
31717;BME280;18301;51.076;17.046;2023-08-12T16:26:13;100190.69;;;28.78;48.20
31717;BME280;18301;51.076;17.046;2023-08-12T16:31:15;100194.28;;;28.55;48.31
31717;BME280;18301;51.076;17.046;2023-08-12T16:36:16;100187.34;;;28.46;49.35
31717;BME280;18301;51.076;17.046;2023-08-12T16:41:18;100182.72;;;28.40;49.74
31717;BME280;18301;51.076;17.046;2023-08-12T16:46:19;100187.91;;;28.36;49.81
31717;BME280;18301;51.076;17.046;2023-08-12T16:51:23;100184.13;;;28.31;50.13
31717;BME280;18301;51.076;17.046;2023-08-12T16:56:25;100176.13;;;28.22;50.98
31717;BME280;18301;51.076;17.046;2023-08-12T17:01:26;100181.78;;;28.16;50.99
31717;BME280;18301;51.076;17.046;2023-08-12T17:06:28;100170.28;;;28.12;51.38
31717;BME280;18301;51.076;17.046;2023-08-12T17:11:30;100169.09;;;28.08;51.34
31717;BME280;18301;51.076;17.046;2023-08-12T17:16:31;100170.47;;;27.99;51.79
31717;BME280;18301;51.076;17.046;2023-08-12T17:21:33;100176.81;;;27.88;52.39
31717;BME280;18301;51.076;17.046;2023-08-12T17:26:35;100180.97;;;27.79;52.88
31717;BME280;18301;51.076;17.046;2023-08-12T17:31:36;100176.78;;;27.69;53.30
31717;BME280;18301;51.076;17.046;2023-08-12T17:36:37;100169.22;;;27.58;53.38
31717;BME280;18301;51.076;17.046;2023-08-12T17:41:39;100180.47;;;27.45;55.08
31717;BME280;18301;51.076;17.046;2023-08-12T17:46:41;100175.66;;;27.34;55.15
31717;BME280;18301;51.076;17.046;2023-08-12T17:51:43;100157.50;;;27.19;55.45
31717;BME280;18301;51.076;17.046;2023-08-12T17:56:45;100158.38;;;27.13;55.26
31717;BME280;18301;51.076;17.046;2023-08-12T18:01:46;100158.66;;;27.05;56.10
31717;BME280;18301;51.076;17.046;2023-08-12T18:06:48;100174.94;;;26.95;56.23
31717;BME280;18301;51.076;17.046;2023-08-12T18:11:50;100178.84;;;26.87;56.17
31717;BME280;18301;51.076;17.046;2023-08-12T18:16:52;100186.19;;;26.75;56.44
31717;BME280;18301;51.076;17.046;2023-08-12T18:21:53;100188.81;;;26.63;56.75
31717;BME280;18301;51.076;17.046;2023-08-12T18:26:55;100197.63;;;26.47;56.99
31717;BME280;18301;51.076;17.046;2023-08-12T18:31:57;100206.00;;;26.33;57.24
31717;BME280;18301;51.076;17.046;2023-08-12T18:36:59;100211.78;;;26.25;57.34
31717;BME280;18301;51.076;17.046;2023-08-12T18:42:01;100218.84;;;26.21;57.58
31717;BME280;18301;51.076;17.046;2023-08-12T18:47:02;100216.97;;;26.15;57.72
31717;BME280;18301;51.076;17.046;2023-08-12T18:52:04;100215.88;;;26.16;57.17
31717;BME280;18301;51.076;17.046;2023-08-12T18:57:05;100217.19;;;26.07;57.11
31717;BME280;18301;51.076;17.046;2023-08-12T19:02:07;100214.88;;;26.04;57.27
31717;BME280;18301;51.076;17.046;2023-08-12T19:07:10;100197.47;;;25.97;57.97
31717;BME280;18301;51.076;17.046;2023-08-12T19:12:11;100184.53;;;25.90;57.79
31717;BME280;18301;51.076;17.046;2023-08-12T19:17:13;100179.63;;;25.79;58.48
31717;BME280;18301;51.076;17.046;2023-08-12T19:22:15;100184.13;;;25.67;58.80
31717;BME280;18301;51.076;17.046;2023-08-12T19:27:16;100185.44;;;25.58;58.80
31717;BME280;18301;51.076;17.046;2023-08-12T19:32:18;100193.53;;;25.53;59.29
31717;BME280;18301;51.076;17.046;2023-08-12T19:37:19;100180.78;;;25.52;59.25
31717;BME280;18301;51.076;17.046;2023-08-12T19:42:21;100187.16;;;25.45;59.48
31717;BME280;18301;51.076;17.046;2023-08-12T19:47:22;100188.03;;;25.39;59.99
31717;BME280;18301;51.076;17.046;2023-08-12T19:52:24;100184.66;;;25.24;60.32
31717;BME280;18301;51.076;17.046;2023-08-12T19:57:25;100184.91;;;25.16;60.69
31717;BME280;18301;51.076;17.046;2023-08-12T20:02:28;100185.75;;;25.16;60.69
31717;BME280;18301;51.076;17.046;2023-08-12T20:07:41;100177.47;;;25.16;60.17
31717;BME280;18301;51.076;17.046;2023-08-12T20:12:42;100187.63;;;24.96;62.04
31717;BME280;18301;51.076;17.046;2023-08-12T20:17:44;100188.88;;;24.93;61.55
31717;BME280;18301;51.076;17.046;2023-08-12T20:22:47;100203.75;;;24.79;62.37
31717;BME280;18301;51.076;17.046;2023-08-12T20:28:06;100204.19;;;24.76;61.65
31717;BME280;18301;51.076;17.046;2023-08-12T20:33:08;100206.50;;;24.66;61.97
31717;BME280;18301;51.076;17.046;2023-08-12T20:38:09;100200.72;;;24.47;62.30
31717;BME280;18301;51.076;17.046;2023-08-12T20:43:11;100196.44;;;24.38;62.86
31717;BME280;18301;51.076;17.046;2023-08-12T20:48:13;100189.63;;;24.27;63.03
31717;BME280;18301;51.076;17.046;2023-08-12T20:53:14;100180.69;;;24.12;64.42
31717;BME280;18301;51.076;17.046;2023-08-12T20:58:16;100184.84;;;23.95;65.51
31717;BME280;18301;51.076;17.046;2023-08-12T21:03:18;100184.38;;;23.84;64.22
31717;BME280;18301;51.076;17.046;2023-08-12T21:08:19;100191.25;;;23.67;66.47
31717;BME280;18301;51.076;17.046;2023-08-12T21:13:21;100191.88;;;23.62;65.41
31717;BME280;18301;51.076;17.046;2023-08-12T21:18:23;100182.53;;;23.57;65.79
31717;BME280;18301;51.076;17.046;2023-08-12T21:23:25;100180.41;;;23.52;65.47
31717;BME280;18301;51.076;17.046;2023-08-12T21:28:26;100169.13;;;23.47;64.84
31717;BME280;18301;51.076;17.046;2023-08-12T21:33:28;100177.41;;;23.54;63.17
31717;BME280;18301;51.076;17.046;2023-08-12T21:38:29;100190.09;;;23.48;63.91
31717;BME280;18301;51.076;17.046;2023-08-12T21:43:31;100176.56;;;23.53;62.99
31717;BME280;18301;51.076;17.046;2023-08-12T21:48:32;100168.38;;;23.66;62.54
31717;BME280;18301;51.076;17.046;2023-08-12T21:53:34;100170.66;;;23.56;63.00
31717;BME280;18301;51.076;17.046;2023-08-12T21:58:35;100171.06;;;23.53;62.50
31717;BME280;18301;51.076;17.046;2023-08-12T22:03:37;100168.13;;;23.61;62.36
31717;BME280;18301;51.076;17.046;2023-08-12T22:08:38;100164.69;;;23.46;63.59
31717;BME280;18301;51.076;17.046;2023-08-12T22:13:40;100168.88;;;23.42;63.41
31717;BME280;18301;51.076;17.046;2023-08-12T22:18:41;100176.44;;;23.33;63.09
31717;BME280;18301;51.076;17.046;2023-08-12T22:23:43;100177.72;;;23.31;64.33
31717;BME280;18301;51.076;17.046;2023-08-12T22:28:45;100173.97;;;23.10;64.47
31717;BME280;18301;51.076;17.046;2023-08-12T22:33:47;100183.81;;;22.98;64.48
31717;BME280;18301;51.076;17.046;2023-08-12T22:38:48;100185.91;;;22.96;64.84
31717;BME280;18301;51.076;17.046;2023-08-12T22:43:50;100191.00;;;22.99;64.27
31717;BME280;18301;51.076;17.046;2023-08-12T22:48:51;100175.81;;;23.03;64.19
31717;BME280;18301;51.076;17.046;2023-08-12T22:53:53;100173.88;;;22.97;64.86
31717;BME280;18301;51.076;17.046;2023-08-12T22:58:55;100183.81;;;22.98;65.15
31717;BME280;18301;51.076;17.046;2023-08-12T23:03:57;100180.41;;;22.96;64.95
31717;BME280;18301;51.076;17.046;2023-08-12T23:08:58;100169.84;;;23.00;64.67
31717;BME280;18301;51.076;17.046;2023-08-12T23:14:00;100166.78;;;23.09;64.27
31717;BME280;18301;51.076;17.046;2023-08-12T23:19:01;100174.38;;;23.07;64.41
31717;BME280;18301;51.076;17.046;2023-08-12T23:24:03;100172.00;;;23.04;63.94
31717;BME280;18301;51.076;17.046;2023-08-12T23:29:05;100176.28;;;23.07;64.65
31717;BME280;18301;51.076;17.046;2023-08-12T23:34:07;100193.22;;;23.10;64.12
31717;BME280;18301;51.076;17.046;2023-08-12T23:39:08;100188.78;;;23.09;63.81
31717;BME280;18301;51.076;17.046;2023-08-12T23:44:11;100198.34;;;23.13;64.02
31717;BME280;18301;51.076;17.046;2023-08-12T23:49:12;100197.94;;;23.16;63.83
31717;BME280;18301;51.076;17.046;2023-08-12T23:54:14;100198.78;;;23.17;63.82
31717;BME280;18301;51.076;17.046;2023-08-12T23:59:15;100209.38;;;23.20;63.63
